Kentwood, Louisiana
Current Conditions -  °F | °C
As of 11:53 PM on Tuesday 25 Nov 2014 (Local Time) from KMCB Reporting Station
Clear Clear  
Wind Chill: 35°   Ceiling: Unl
Heat Index: 35°   Visibility: 10mi
Dew Point: 29°   Wind: 0mph
Humidity: 78%   Direction: NA
Pressure: 30.21"   Gusts: NA
Location:  30.94°N, 90.51°W
Report Text: KMCB 260553Z AUTO 00000KT 10SM CLR 02/M02 A3021 RMK AO2 SLP229 T00171017 10083 20006 401280006 58006
Loading
Personal Weather Stations






























Interactive Weather Map New forecast layout! Learn more

10-Day Weather Forecast

Advertisements
Track Severe Weather on mobile